sensor_id;sensor_type;location;lat;lon;timestamp;temperature;humidity
25616;DHT22;13482;48.234;13.006;2023-04-15T00:01:10;9.30;77.50
25616;DHT22;13482;48.234;13.006;2023-04-15T00:03:37;9.30;77.50
25616;DHT22;13482;48.234;13.006;2023-04-15T00:06:05;9.40;77.50
25616;DHT22;13482;48.234;13.006;2023-04-15T00:08:32;9.40;77.40
25616;DHT22;13482;48.234;13.006;2023-04-15T00:10:59;9.40;77.50
25616;DHT22;13482;48.234;13.006;2023-04-15T00:13:31;9.40;77.50
25616;DHT22;13482;48.234;13.006;2023-04-15T00:18:41;9.40;77.30
25616;DHT22;13482;48.234;13.006;2023-04-15T00:21:08;9.40;78.30
25616;DHT22;13482;48.234;13.006;2023-04-15T00:23:35;9.40;77.30
25616;DHT22;13482;48.234;13.006;2023-04-15T00:26:03;9.40;77.40
25616;DHT22;13482;48.234;13.006;2023-04-15T00:28:30;9.40;77.40
25616;DHT22;13482;48.234;13.006;2023-04-15T00:30:57;9.40;77.50
25616;DHT22;13482;48.234;13.006;2023-04-15T00:33:25;9.30;77.60
25616;DHT22;13482;48.234;13.006;2023-04-15T00:35:52;9.30;77.60
25616;DHT22;13482;48.234;13.006;2023-04-15T00:38:19;9.30;77.60
25616;DHT22;13482;48.234;13.006;2023-04-15T00:40:46;9.40;77.50
25616;DHT22;13482;48.234;13.006;2023-04-15T00:43:14;9.30;77.60
25616;DHT22;13482;48.234;13.006;2023-04-15T00:45:42;9.30;77.60
25616;DHT22;13482;48.234;13.006;2023-04-15T00:48:09;9.30;77.70
25616;DHT22;13482;48.234;13.006;2023-04-15T00:50:37;9.30;77.80
25616;DHT22;13482;48.234;13.006;2023-04-15T00:53:04;9.30;77.90
25616;DHT22;13482;48.234;13.006;2023-04-15T00:55:31;9.40;77.70
25616;DHT22;13482;48.234;13.006;2023-04-15T00:58:00;9.40;77.90
25616;DHT22;13482;48.234;13.006;2023-04-15T01:00:28;9.40;77.80
25616;DHT22;13482;48.234;13.006;2023-04-15T01:02:56;9.40;77.80
25616;DHT22;13482;48.234;13.006;2023-04-15T01:05:23;9.40;77.80
25616;DHT22;13482;48.234;13.006;2023-04-15T01:07:50;9.40;77.90
25616;DHT22;13482;48.234;13.006;2023-04-15T01:10:17;9.40;77.80
25616;DHT22;13482;48.234;13.006;2023-04-15T01:12:44;9.40;77.80
25616;DHT22;13482;48.234;13.006;2023-04-15T01:15:12;9.40;77.80
25616;DHT22;13482;48.234;13.006;2023-04-15T01:17:40;9.40;77.70
25616;DHT22;13482;48.234;13.006;2023-04-15T01:20:08;9.40;77.70
25616;DHT22;13482;48.234;13.006;2023-04-15T01:22:38;9.40;77.80
25616;DHT22;13482;48.234;13.006;2023-04-15T01:25:10;9.40;77.80
25616;DHT22;13482;48.234;13.006;2023-04-15T01:27:39;9.40;77.70
25616;DHT22;13482;48.234;13.006;2023-04-15T01:30:08;9.40;77.70
25616;DHT22;13482;48.234;13.006;2023-04-15T01:32:36;9.40;77.70
25616;DHT22;13482;48.234;13.006;2023-04-15T01:35:04;9.40;77.80
25616;DHT22;13482;48.234;13.006;2023-04-15T01:37:31;9.40;77.70
25616;DHT22;13482;48.234;13.006;2023-04-15T01:39:59;9.40;77.70
25616;DHT22;13482;48.234;13.006;2023-04-15T01:42:26;9.40;77.70
25616;DHT22;13482;48.234;13.006;2023-04-15T01:44:53;9.40;77.80
25616;DHT22;13482;48.234;13.006;2023-04-15T01:47:20;9.40;77.90
25616;DHT22;13482;48.234;13.006;2023-04-15T01:49:48;9.40;77.80
25616;DHT22;13482;48.234;13.006;2023-04-15T01:52:15;9.40;77.80
25616;DHT22;13482;48.234;13.006;2023-04-15T01:54:42;9.40;77.80
25616;DHT22;13482;48.234;13.006;2023-04-15T01:57:10;9.40;77.80
25616;DHT22;13482;48.234;13.006;2023-04-15T01:59:37;9.40;77.80
25616;DHT22;13482;48.234;13.006;2023-04-15T02:02:04;9.40;77.90
25616;DHT22;13482;48.234;13.006;2023-04-15T02:04:31;9.40;77.80
25616;DHT22;13482;48.234;13.006;2023-04-15T02:06:58;9.40;77.80
25616;DHT22;13482;48.234;13.006;2023-04-15T02:09:26;9.40;77.80
25616;DHT22;13482;48.234;13.006;2023-04-15T02:11:53;9.40;77.90
25616;DHT22;13482;48.234;13.006;2023-04-15T02:14:20;9.40;77.80
25616;DHT22;13482;48.234;13.006;2023-04-15T02:16:47;9.40;77.90
25616;DHT22;13482;48.234;13.006;2023-04-15T02:19:15;9.40;77.80
25616;DHT22;13482;48.234;13.006;2023-04-15T02:21:42;9.40;77.80
25616;DHT22;13482;48.234;13.006;2023-04-15T02:24:09;9.40;77.80
25616;DHT22;13482;48.234;13.006;2023-04-15T02:26:37;9.40;77.70
25616;DHT22;13482;48.234;13.006;2023-04-15T02:29:05;9.40;77.90
25616;DHT22;13482;48.234;13.006;2023-04-15T02:31:32;9.40;77.90
25616;DHT22;13482;48.234;13.006;2023-04-15T02:34:02;9.40;78.10
25616;DHT22;13482;48.234;13.006;2023-04-15T02:36:30;9.40;77.80
25616;DHT22;13482;48.234;13.006;2023-04-15T02:38:57;9.40;77.90
25616;DHT22;13482;48.234;13.006;2023-04-15T02:41:25;9.40;77.90
25616;DHT22;13482;48.234;13.006;2023-04-15T02:43:55;9.40;78.10
25616;DHT22;13482;48.234;13.006;2023-04-15T02:46:22;9.40;77.90
25616;DHT22;13482;48.234;13.006;2023-04-15T02:48:50;9.40;78.10
25616;DHT22;13482;48.234;13.006;2023-04-15T02:51:20;9.40;78.10
25616;DHT22;13482;48.234;13.006;2023-04-15T02:53:48;9.40;77.90
25616;DHT22;13482;48.234;13.006;2023-04-15T02:56:16;9.40;78.10
25616;DHT22;13482;48.234;13.006;2023-04-15T02:58:45;9.40;78.10
25616;DHT22;13482;48.234;13.006;2023-04-15T03:01:12;9.40;78.10
25616;DHT22;13482;48.234;13.006;2023-04-15T03:03:40;9.40;78.20
25616;DHT22;13482;48.234;13.006;2023-04-15T03:06:07;9.40;78.10
25616;DHT22;13482;48.234;13.006;2023-04-15T03:08:35;9.40;78.10
25616;DHT22;13482;48.234;13.006;2023-04-15T03:11:03;9.40;78.10
25616;DHT22;13482;48.234;13.006;2023-04-15T03:13:30;9.40;77.90
25616;DHT22;13482;48.234;13.006;2023-04-15T03:15:57;9.40;78.10
25616;DHT22;13482;48.234;13.006;2023-04-15T03:18:25;9.40;77.80
25616;DHT22;13482;48.234;13.006;2023-04-15T03:20:52;9.40;78.10
25616;DHT22;13482;48.234;13.006;2023-04-15T03:23:19;9.40;78.10
25616;DHT22;13482;48.234;13.006;2023-04-15T03:25:46;9.40;77.80
25616;DHT22;13482;48.234;13.006;2023-04-15T03:28:13;9.40;78.10
25616;DHT22;13482;48.234;13.006;2023-04-15T03:30:40;9.40;77.90
25616;DHT22;13482;48.234;13.006;2023-04-15T03:33:07;9.40;77.90
25616;DHT22;13482;48.234;13.006;2023-04-15T03:35:35;9.40;77.90
25616;DHT22;13482;48.234;13.006;2023-04-15T03:38:02;9.40;78.10
25616;DHT22;13482;48.234;13.006;2023-04-15T03:40:29;9.40;78.10
25616;DHT22;13482;48.234;13.006;2023-04-15T03:42:56;9.40;77.90
25616;DHT22;13482;48.234;13.006;2023-04-15T03:45:23;9.40;77.90
25616;DHT22;13482;48.234;13.006;2023-04-15T03:47:51;9.40;77.90
25616;DHT22;13482;48.234;13.006;2023-04-15T03:50:18;9.40;77.90
25616;DHT22;13482;48.234;13.006;2023-04-15T03:52:45;9.40;78.10
25616;DHT22;13482;48.234;13.006;2023-04-15T03:55:14;9.40;77.90
25616;DHT22;13482;48.234;13.006;2023-04-15T03:57:41;9.40;77.80
25616;DHT22;13482;48.234;13.006;2023-04-15T04:00:08;9.40;77.80
25616;DHT22;13482;48.234;13.006;2023-04-15T04:02:36;9.50;77.90
25616;DHT22;13482;48.234;13.006;2023-04-15T04:05:04;9.50;77.90
25616;DHT22;13482;48.234;13.006;2023-04-15T04:07:31;9.50;77.80
25616;DHT22;13482;48.234;13.006;2023-04-15T04:09:58;9.50;77.90
25616;DHT22;13482;48.234;13.006;2023-04-15T04:12:25;9.50;77.90
25616;DHT22;13482;48.234;13.006;2023-04-15T04:14:52;9.50;77.90
25616;DHT22;13482;48.234;13.006;2023-04-15T04:17:19;9.50;78.00
25616;DHT22;13482;48.234;13.006;2023-04-15T04:19:46;9.50;77.90
25616;DHT22;13482;48.234;13.006;2023-04-15T04:22:13;9.50;77.90
25616;DHT22;13482;48.234;13.006;2023-04-15T04:24:41;9.40;77.90
25616;DHT22;13482;48.234;13.006;2023-04-15T04:27:08;9.40;77.90
25616;DHT22;13482;48.234;13.006;2023-04-15T04:29:35;9.40;77.90
25616;DHT22;13482;48.234;13.006;2023-04-15T04:32:02;9.40;78.10
25616;DHT22;13482;48.234;13.006;2023-04-15T04:34:29;9.40;77.90
25616;DHT22;13482;48.234;13.006;2023-04-15T04:36:58;9.40;78.10
25616;DHT22;13482;48.234;13.006;2023-04-15T04:39:25;9.40;78.10
25616;DHT22;13482;48.234;13.006;2023-04-15T04:41:52;9.40;78.10
25616;DHT22;13482;48.234;13.006;2023-04-15T04:44:19;9.40;78.20
25616;DHT22;13482;48.234;13.006;2023-04-15T04:46:46;9.40;78.20
25616;DHT22;13482;48.234;13.006;2023-04-15T04:49:14;9.40;78.20
25616;DHT22;13482;48.234;13.006;2023-04-15T04:51:41;9.40;78.30
25616;DHT22;13482;48.234;13.006;2023-04-15T04:54:08;9.40;78.30
25616;DHT22;13482;48.234;13.006;2023-04-15T04:56:35;9.40;78.30
25616;DHT22;13482;48.234;13.006;2023-04-15T04:59:04;9.40;78.30
25616;DHT22;13482;48.234;13.006;2023-04-15T05:01:32;9.40;78.50
25616;DHT22;13482;48.234;13.006;2023-04-15T05:04:00;9.40;78.50
25616;DHT22;13482;48.234;13.006;2023-04-15T05:06:27;9.40;78.50
25616;DHT22;13482;48.234;13.006;2023-04-15T05:08:56;9.30;78.40
25616;DHT22;13482;48.234;13.006;2023-04-15T05:11:23;9.30;78.40
25616;DHT22;13482;48.234;13.006;2023-04-15T05:13:50;9.30;78.40
25616;DHT22;13482;48.234;13.006;2023-04-15T05:16:18;9.30;78.40
25616;DHT22;13482;48.234;13.006;2023-04-15T05:18:46;9.30;78.50
25616;DHT22;13482;48.234;13.006;2023-04-15T05:21:13;9.30;78.50
25616;DHT22;13482;48.234;13.006;2023-04-15T05:23:40;9.30;78.50
25616;DHT22;13482;48.234;13.006;2023-04-15T05:26:08;9.30;78.40
25616;DHT22;13482;48.234;13.006;2023-04-15T05:28:35;9.30;78.50
25616;DHT22;13482;48.234;13.006;2023-04-15T05:31:03;9.30;78.30
25616;DHT22;13482;48.234;13.006;2023-04-15T05:33:30;9.30;78.40
25616;DHT22;13482;48.234;13.006;2023-04-15T05:35:58;9.30;78.30
25616;DHT22;13482;48.234;13.006;2023-04-15T05:38:25;9.30;78.10
25616;DHT22;13482;48.234;13.006;2023-04-15T05:40:52;9.30;77.90
25616;DHT22;13482;48.234;13.006;2023-04-15T05:43:19;9.30;77.90
25616;DHT22;13482;48.234;13.006;2023-04-15T05:45:47;9.30;77.80
25616;DHT22;13482;48.234;13.006;2023-04-15T05:48:14;9.30;77.80
25616;DHT22;13482;48.234;13.006;2023-04-15T05:50:41;9.30;77.80
25616;DHT22;13482;48.234;13.006;2023-04-15T05:53:09;9.30;77.80
25616;DHT22;13482;48.234;13.006;2023-04-15T05:55:36;9.30;77.80
25616;DHT22;13482;48.234;13.006;2023-04-15T05:58:03;9.30;77.90
25616;DHT22;13482;48.234;13.006;2023-04-15T06:00:30;9.20;78.10
25616;DHT22;13482;48.234;13.006;2023-04-15T06:02:57;9.20;78.20
25616;DHT22;13482;48.234;13.006;2023-04-15T06:05:25;9.20;78.10
25616;DHT22;13482;48.234;13.006;2023-04-15T06:07:53;9.20;78.10
25616;DHT22;13482;48.234;13.006;2023-04-15T06:10:20;9.20;78.20
25616;DHT22;13482;48.234;13.006;2023-04-15T06:12:47;9.20;78.30
25616;DHT22;13482;48.234;13.006;2023-04-15T06:15:14;9.20;78.30
25616;DHT22;13482;48.234;13.006;2023-04-15T06:17:42;9.20;78.40
25616;DHT22;13482;48.234;13.006;2023-04-15T06:20:10;9.20;78.30
25616;DHT22;13482;48.234;13.006;2023-04-15T06:22:38;9.20;78.20
25616;DHT22;13482;48.234;13.006;2023-04-15T06:25:06;9.20;78.20
25616;DHT22;13482;48.234;13.006;2023-04-15T06:27:35;9.20;78.20
25616;DHT22;13482;48.234;13.006;2023-04-15T06:30:02;9.20;78.20
25616;DHT22;13482;48.234;13.006;2023-04-15T06:32:31;9.20;78.10
25616;DHT22;13482;48.234;13.006;2023-04-15T06:34:58;9.20;78.20
25616;DHT22;13482;48.234;13.006;2023-04-15T06:37:26;9.20;78.20
25616;DHT22;13482;48.234;13.006;2023-04-15T06:39:53;9.20;78.10
25616;DHT22;13482;48.234;13.006;2023-04-15T06:42:20;9.20;78.10
25616;DHT22;13482;48.234;13.006;2023-04-15T06:44:47;9.20;78.00
25616;DHT22;13482;48.234;13.006;2023-04-15T06:47:14;9.20;78.00
25616;DHT22;13482;48.234;13.006;2023-04-15T06:49:42;9.30;77.90
25616;DHT22;13482;48.234;13.006;2023-04-15T06:52:09;9.30;77.70
25616;DHT22;13482;48.234;13.006;2023-04-15T06:54:37;9.20;77.60
25616;DHT22;13482;48.234;13.006;2023-04-15T06:57:04;9.20;77.70
25616;DHT22;13482;48.234;13.006;2023-04-15T06:59:33;9.20;77.70
25616;DHT22;13482;48.234;13.006;2023-04-15T07:02:00;9.20;77.80
25616;DHT22;13482;48.234;13.006;2023-04-15T07:04:27;9.20;77.80
25616;DHT22;13482;48.234;13.006;2023-04-15T07:06:55;9.20;77.80
25616;DHT22;13482;48.234;13.006;2023-04-15T07:09:23;9.20;77.80
25616;DHT22;13482;48.234;13.006;2023-04-15T07:11:50;9.20;77.90
25616;DHT22;13482;48.234;13.006;2023-04-15T07:14:18;9.20;77.80
25616;DHT22;13482;48.234;13.006;2023-04-15T07:16:45;9.20;78.00
25616;DHT22;13482;48.234;13.006;2023-04-15T07:19:12;9.30;77.90
25616;DHT22;13482;48.234;13.006;2023-04-15T07:21:40;9.30;77.80
25616;DHT22;13482;48.234;13.006;2023-04-15T07:24:07;9.30;77.90
25616;DHT22;13482;48.234;13.006;2023-04-15T07:26:36;9.30;77.80
25616;DHT22;13482;48.234;13.006;2023-04-15T07:29:03;9.30;77.80
25616;DHT22;13482;48.234;13.006;2023-04-15T07:31:30;9.30;77.80
25616;DHT22;13482;48.234;13.006;2023-04-15T07:33:57;9.30;77.90
25616;DHT22;13482;48.234;13.006;2023-04-15T07:36:25;9.30;77.80
25616;DHT22;13482;48.234;13.006;2023-04-15T07:38:52;9.30;77.70
25616;DHT22;13482;48.234;13.006;2023-04-15T07:41:22;9.30;77.70
25616;DHT22;13482;48.234;13.006;2023-04-15T07:43:49;9.30;77.60
25616;DHT22;13482;48.234;13.006;2023-04-15T07:46:16;9.30;77.60
25616;DHT22;13482;48.234;13.006;2023-04-15T07:48:44;9.30;77.50
25616;DHT22;13482;48.234;13.006;2023-04-15T07:51:11;9.30;77.50
25616;DHT22;13482;48.234;13.006;2023-04-15T07:53:38;9.30;77.70
25616;DHT22;13482;48.234;13.006;2023-04-15T07:56:06;9.30;77.60
25616;DHT22;13482;48.234;13.006;2023-04-15T07:58:33;9.30;77.60
25616;DHT22;13482;48.234;13.006;2023-04-15T08:01:00;9.30;77.70
25616;DHT22;13482;48.234;13.006;2023-04-15T08:03:27;9.30;77.70
25616;DHT22;13482;48.234;13.006;2023-04-15T08:05:55;9.40;77.90
25616;DHT22;13482;48.234;13.006;2023-04-15T08:08:22;9.40;77.90
25616;DHT22;13482;48.234;13.006;2023-04-15T08:10:49;9.40;78.10
25616;DHT22;13482;48.234;13.006;2023-04-15T08:13:18;9.40;77.90
25616;DHT22;13482;48.234;13.006;2023-04-15T08:18:41;9.50;78.00
25616;DHT22;13482;48.234;13.006;2023-04-15T08:21:09;9.50;78.10
25616;DHT22;13482;48.234;13.006;2023-04-15T08:23:37;9.50;78.10
25616;DHT22;13482;48.234;13.006;2023-04-15T08:26:05;9.50;78.00
25616;DHT22;13482;48.234;13.006;2023-04-15T08:28:32;9.50;77.90
25616;DHT22;13482;48.234;13.006;2023-04-15T08:30:59;9.50;77.80
25616;DHT22;13482;48.234;13.006;2023-04-15T08:33:27;9.60;77.80
25616;DHT22;13482;48.234;13.006;2023-04-15T08:35:54;9.60;77.80
25616;DHT22;13482;48.234;13.006;2023-04-15T08:38:21;9.60;77.80
25616;DHT22;13482;48.234;13.006;2023-04-15T08:40:49;9.60;77.90
25616;DHT22;13482;48.234;13.006;2023-04-15T08:43:22;9.60;77.80
25616;DHT22;13482;48.234;13.006;2023-04-15T08:45:53;9.60;77.80
25616;DHT22;13482;48.234;13.006;2023-04-15T08:48:21;9.60;77.80
25616;DHT22;13482;48.234;13.006;2023-04-15T08:50:50;9.60;77.90
25616;DHT22;13482;48.234;13.006;2023-04-15T08:53:19;9.60;77.90
25616;DHT22;13482;48.234;13.006;2023-04-15T08:55:51;9.70;77.90
25616;DHT22;13482;48.234;13.006;2023-04-15T08:58:18;9.70;77.90
25616;DHT22;13482;48.234;13.006;2023-04-15T09:00:46;9.70;77.60
25616;DHT22;13482;48.234;13.006;2023-04-15T09:03:15;9.60;77.60
25616;DHT22;13482;48.234;13.006;2023-04-15T09:05:43;9.70;77.60
25616;DHT22;13482;48.234;13.006;2023-04-15T09:08:11;9.70;77.70
25616;DHT22;13482;48.234;13.006;2023-04-15T09:10:38;9.70;77.80
25616;DHT22;13482;48.234;13.006;2023-04-15T09:13:05;9.70;77.80
25616;DHT22;13482;48.234;13.006;2023-04-15T09:15:32;9.70;77.80
25616;DHT22;13482;48.234;13.006;2023-04-15T09:18:04;9.70;77.80
25616;DHT22;13482;48.234;13.006;2023-04-15T09:20:40;9.80;77.80
25616;DHT22;13482;48.234;13.006;2023-04-15T09:23:12;9.80;77.80
25616;DHT22;13482;48.234;13.006;2023-04-15T09:25:41;9.80;77.80
25616;DHT22;13482;48.234;13.006;2023-04-15T09:28:08;9.80;77.80
25616;DHT22;13482;48.234;13.006;2023-04-15T09:30:37;9.90;77.80
25616;DHT22;13482;48.234;13.006;2023-04-15T09:33:04;9.90;77.90
25616;DHT22;13482;48.234;13.006;2023-04-15T09:35:34;9.90;77.90
25616;DHT22;13482;48.234;13.006;2023-04-15T09:38:07;9.90;77.90
25616;DHT22;13482;48.234;13.006;2023-04-15T09:40:40;10.00;77.80
25616;DHT22;13482;48.234;13.006;2023-04-15T09:43:08;10.00;77.80
25616;DHT22;13482;48.234;13.006;2023-04-15T09:48:23;10.00;77.80
25616;DHT22;13482;48.234;13.006;2023-04-15T09:50:57;10.00;77.80
25616;DHT22;13482;48.234;13.006;2023-04-15T09:53:25;10.10;77.80
25616;DHT22;13482;48.234;13.006;2023-04-15T09:55:58;10.10;77.80
25616;DHT22;13482;48.234;13.006;2023-04-15T09:58:31;10.10;77.80
25616;DHT22;13482;48.234;13.006;2023-04-15T10:01:01;10.10;77.80
25616;DHT22;13482;48.234;13.006;2023-04-15T10:03:31;10.10;77.80
25616;DHT22;13482;48.234;13.006;2023-04-15T10:06:01;10.10;77.80
25616;DHT22;13482;48.234;13.006;2023-04-15T10:08:32;10.10;77.80
25616;DHT22;13482;48.234;13.006;2023-04-15T10:11:01;10.10;77.80
25616;DHT22;13482;48.234;13.006;2023-04-15T10:13:30;10.20;77.80
25616;DHT22;13482;48.234;13.006;2023-04-15T10:16:10;10.20;77.60
25616;DHT22;13482;48.234;13.006;2023-04-15T10:18:54;10.20;77.50
25616;DHT22;13482;48.234;13.006;2023-04-15T10:21:22;10.20;77.50
25616;DHT22;13482;48.234;13.006;2023-04-15T10:23:49;10.20;77.50
25616;DHT22;13482;48.234;13.006;2023-04-15T10:26:17;10.20;77.50
25616;DHT22;13482;48.234;13.006;2023-04-15T10:28:45;10.20;77.60
25616;DHT22;13482;48.234;13.006;2023-04-15T10:31:14;10.20;77.60
25616;DHT22;13482;48.234;13.006;2023-04-15T10:33:43;10.20;77.80
25616;DHT22;13482;48.234;13.006;2023-04-15T10:36:12;10.30;77.80
25616;DHT22;13482;48.234;13.006;2023-04-15T10:38:43;10.30;78.10
25616;DHT22;13482;48.234;13.006;2023-04-15T10:44:02;10.30;78.00
25616;DHT22;13482;48.234;13.006;2023-04-15T10:46:41;10.30;78.10
25616;DHT22;13482;48.234;13.006;2023-04-15T10:49:14;10.30;78.10
25616;DHT22;13482;48.234;13.006;2023-04-15T10:51:50;10.40;78.20
25616;DHT22;13482;48.234;13.006;2023-04-15T10:57:07;10.50;78.20
25616;DHT22;13482;48.234;13.006;2023-04-15T10:59:59;10.50;78.30
25616;DHT22;13482;48.234;13.006;2023-04-15T11:02:44;10.50;78.20
25616;DHT22;13482;48.234;13.006;2023-04-15T11:05:49;10.50;78.00
25616;DHT22;13482;48.234;13.006;2023-04-15T11:08:18;10.60;77.90
25616;DHT22;13482;48.234;13.006;2023-04-15T11:13:19;10.50;77.50
25616;DHT22;13482;48.234;13.006;2023-04-15T11:15:49;10.50;77.60
25616;DHT22;13482;48.234;13.006;2023-04-15T11:18:22;10.50;77.60
25616;DHT22;13482;48.234;13.006;2023-04-15T11:20:59;10.50;77.60
25616;DHT22;13482;48.234;13.006;2023-04-15T11:23:41;10.50;77.70
25616;DHT22;13482;48.234;13.006;2023-04-15T11:26:12;10.50;77.70
25616;DHT22;13482;48.234;13.006;2023-04-15T11:28:42;10.50;77.50
25616;DHT22;13482;48.234;13.006;2023-04-15T11:31:11;10.50;77.50
25616;DHT22;13482;48.234;13.006;2023-04-15T11:33:57;10.50;77.60
25616;DHT22;13482;48.234;13.006;2023-04-15T11:36:26;10.60;77.80
25616;DHT22;13482;48.234;13.006;2023-04-15T11:38:58;10.60;77.80
25616;DHT22;13482;48.234;13.006;2023-04-15T11:41:26;10.60;77.80
25616;DHT22;13482;48.234;13.006;2023-04-15T11:43:53;10.60;77.90
25616;DHT22;13482;48.234;13.006;2023-04-15T11:46:20;10.60;77.70
25616;DHT22;13482;48.234;13.006;2023-04-15T11:48:54;10.60;77.40
25616;DHT22;13482;48.234;13.006;2023-04-15T11:51:21;10.60;77.10
25616;DHT22;13482;48.234;13.006;2023-04-15T11:53:49;10.60;77.20
25616;DHT22;13482;48.234;13.006;2023-04-15T11:56:23;10.60;77.20
25616;DHT22;13482;48.234;13.006;2023-04-15T11:58:52;10.60;77.20
25616;DHT22;13482;48.234;13.006;2023-04-15T12:01:36;10.50;77.30
25616;DHT22;13482;48.234;13.006;2023-04-15T12:04:26;10.50;77.40
25616;DHT22;13482;48.234;13.006;2023-04-15T12:06:53;10.50;77.50
25616;DHT22;13482;48.234;13.006;2023-04-15T12:09:22;10.50;77.40
25616;DHT22;13482;48.234;13.006;2023-04-15T12:11:50;10.50;77.40
25616;DHT22;13482;48.234;13.006;2023-04-15T12:14:24;10.50;77.50
25616;DHT22;13482;48.234;13.006;2023-04-15T12:17:00;10.60;77.70
25616;DHT22;13482;48.234;13.006;2023-04-15T12:19:29;10.60;77.30
25616;DHT22;13482;48.234;13.006;2023-04-15T12:22:01;10.60;77.40
25616;DHT22;13482;48.234;13.006;2023-04-15T12:24:33;10.60;77.40
25616;DHT22;13482;48.234;13.006;2023-04-15T12:27:11;10.60;77.50
25616;DHT22;13482;48.234;13.006;2023-04-15T12:29:42;10.70;77.60
25616;DHT22;13482;48.234;13.006;2023-04-15T12:32:11;10.70;77.60
25616;DHT22;13482;48.234;13.006;2023-04-15T12:34:50;10.80;77.80
25616;DHT22;13482;48.234;13.006;2023-04-15T12:37:18;10.90;77.90
25616;DHT22;13482;48.234;13.006;2023-04-15T12:39:47;10.90;77.90
25616;DHT22;13482;48.234;13.006;2023-04-15T12:42:16;11.00;77.80
25616;DHT22;13482;48.234;13.006;2023-04-15T12:44:45;11.00;77.70
25616;DHT22;13482;48.234;13.006;2023-04-15T12:47:13;11.10;77.50
25616;DHT22;13482;48.234;13.006;2023-04-15T12:49:40;11.10;77.30
25616;DHT22;13482;48.234;13.006;2023-04-15T12:52:08;11.10;77.10
25616;DHT22;13482;48.234;13.006;2023-04-15T12:54:35;11.10;76.80
25616;DHT22;13482;48.234;13.006;2023-04-15T12:57:03;11.10;76.90
25616;DHT22;13482;48.234;13.006;2023-04-15T12:59:34;11.10;76.90
25616;DHT22;13482;48.234;13.006;2023-04-15T13:02:02;11.10;76.70
25616;DHT22;13482;48.234;13.006;2023-04-15T13:04:30;11.10;76.80
25616;DHT22;13482;48.234;13.006;2023-04-15T13:06:57;11.00;76.90
25616;DHT22;13482;48.234;13.006;2023-04-15T13:09:25;11.10;77.10
25616;DHT22;13482;48.234;13.006;2023-04-15T13:11:52;11.10;77.10
25616;DHT22;13482;48.234;13.006;2023-04-15T13:14:20;11.10;76.90
25616;DHT22;13482;48.234;13.006;2023-04-15T13:16:47;11.10;76.90
25616;DHT22;13482;48.234;13.006;2023-04-15T13:19:14;11.10;76.90
25616;DHT22;13482;48.234;13.006;2023-04-15T13:21:42;11.10;76.90
25616;DHT22;13482;48.234;13.006;2023-04-15T13:24:09;11.10;76.70
25616;DHT22;13482;48.234;13.006;2023-04-15T13:26:36;11.10;76.70
25616;DHT22;13482;48.234;13.006;2023-04-15T13:29:04;11.10;76.70
25616;DHT22;13482;48.234;13.006;2023-04-15T13:31:31;11.10;76.60
25616;DHT22;13482;48.234;13.006;2023-04-15T13:33:59;11.10;76.70
25616;DHT22;13482;48.234;13.006;2023-04-15T13:36:26;11.10;76.80
25616;DHT22;13482;48.234;13.006;2023-04-15T13:38:53;11.10;76.80
25616;DHT22;13482;48.234;13.006;2023-04-15T13:41:21;11.20;76.90
25616;DHT22;13482;48.234;13.006;2023-04-15T13:43:49;11.20;76.80
25616;DHT22;13482;48.234;13.006;2023-04-15T13:46:16;11.20;76.70
25616;DHT22;13482;48.234;13.006;2023-04-15T13:48:43;11.20;76.70
25616;DHT22;13482;48.234;13.006;2023-04-15T13:51:11;11.30;76.70
25616;DHT22;13482;48.234;13.006;2023-04-15T13:53:38;11.30;76.80
25616;DHT22;13482;48.234;13.006;2023-04-15T13:56:06;11.30;76.80
25616;DHT22;13482;48.234;13.006;2023-04-15T13:58:35;11.30;76.90
25616;DHT22;13482;48.234;13.006;2023-04-15T14:01:03;11.40;76.90
25616;DHT22;13482;48.234;13.006;2023-04-15T14:03:34;11.40;76.90
25616;DHT22;13482;48.234;13.006;2023-04-15T14:06:03;11.40;76.90
25616;DHT22;13482;48.234;13.006;2023-04-15T14:08:31;11.50;76.80
25616;DHT22;13482;48.234;13.006;2023-04-15T14:10:59;11.50;76.80
25616;DHT22;13482;48.234;13.006;2023-04-15T14:13:26;11.50;76.70
25616;DHT22;13482;48.234;13.006;2023-04-15T14:15:53;11.50;76.60
25616;DHT22;13482;48.234;13.006;2023-04-15T14:18:21;11.60;76.60
25616;DHT22;13482;48.234;13.006;2023-04-15T14:20:48;11.60;76.60
25616;DHT22;13482;48.234;13.006;2023-04-15T14:23:15;11.60;76.40
25616;DHT22;13482;48.234;13.006;2023-04-15T14:25:42;11.60;76.40
25616;DHT22;13482;48.234;13.006;2023-04-15T14:28:13;11.60;76.40
25616;DHT22;13482;48.234;13.006;2023-04-15T14:30:41;11.60;76.40
25616;DHT22;13482;48.234;13.006;2023-04-15T14:33:08;11.60;76.50
25616;DHT22;13482;48.234;13.006;2023-04-15T14:35:35;11.60;76.40
25616;DHT22;13482;48.234;13.006;2023-04-15T14:38:03;11.60;76.40
25616;DHT22;13482;48.234;13.006;2023-04-15T14:40:32;11.60;76.50
25616;DHT22;13482;48.234;13.006;2023-04-15T14:42:59;11.60;76.40
25616;DHT22;13482;48.234;13.006;2023-04-15T14:45:27;11.60;76.50
25616;DHT22;13482;48.234;13.006;2023-04-15T14:47:54;11.60;76.60
25616;DHT22;13482;48.234;13.006;2023-04-15T14:50:22;11.60;76.60
25616;DHT22;13482;48.234;13.006;2023-04-15T14:52:49;11.60;76.70
25616;DHT22;13482;48.234;13.006;2023-04-15T14:55:16;11.70;76.70
25616;DHT22;13482;48.234;13.006;2023-04-15T14:57:43;11.70;76.60
25616;DHT22;13482;48.234;13.006;2023-04-15T15:00:11;11.70;76.60
25616;DHT22;13482;48.234;13.006;2023-04-15T15:02:42;11.70;76.50
25616;DHT22;13482;48.234;13.006;2023-04-15T15:05:10;11.80;76.40
25616;DHT22;13482;48.234;13.006;2023-04-15T15:07:38;11.80;76.40
25616;DHT22;13482;48.234;13.006;2023-04-15T15:10:07;11.80;76.30
25616;DHT22;13482;48.234;13.006;2023-04-15T15:12:34;11.80;76.30
25616;DHT22;13482;48.234;13.006;2023-04-15T15:15:02;11.80;76.20
25616;DHT22;13482;48.234;13.006;2023-04-15T15:17:41;11.80;76.10
25616;DHT22;13482;48.234;13.006;2023-04-15T15:20:09;11.80;76.10
25616;DHT22;13482;48.234;13.006;2023-04-15T15:22:36;11.80;76.10
25616;DHT22;13482;48.234;13.006;2023-04-15T15:25:04;11.80;76.00
25616;DHT22;13482;48.234;13.006;2023-04-15T15:27:32;11.70;75.90
25616;DHT22;13482;48.234;13.006;2023-04-15T15:30:02;11.70;75.80
25616;DHT22;13482;48.234;13.006;2023-04-15T15:32:30;11.70;75.80
25616;DHT22;13482;48.234;13.006;2023-04-15T15:34:57;11.70;75.70
25616;DHT22;13482;48.234;13.006;2023-04-15T15:37:25;11.60;75.70
25616;DHT22;13482;48.234;13.006;2023-04-15T15:39:52;11.60;75.70
25616;DHT22;13482;48.234;13.006;2023-04-15T15:42:19;11.60;75.70
25616;DHT22;13482;48.234;13.006;2023-04-15T15:44:47;11.50;75.60
25616;DHT22;13482;48.234;13.006;2023-04-15T15:47:15;11.50;75.60
25616;DHT22;13482;48.234;13.006;2023-04-15T15:49:42;11.40;75.70